Flight Track Log - Related Links

Times and Time Zones

All times are in EDT time to prevent confusion due to time zone crossing. See the TAM3441 flight status page for this flight to view local times or setup timezone preferences in your user account.

Time Position Orientation Groundspeed Altitude Reporting Facility
EDT Latitude Longitude Course Direction KTS MPH feet Rate Location/Type
Mon 05:49:00 AM -21.0427 -44.8785 211° Southwest  Level Estimated
Mon 05:50:00 AM -21.0948 -44.9125 211° Southwest  Level Estimated
Mon 05:51:00 AM -21.1469 -44.9466 211° Southwest  Level Estimated
Mon 05:52:00 AM -21.1989 -44.9806 211° Southwest  Level Estimated
Mon 05:53:00 AM -21.2510 -45.0147 211° Southwest  Level Estimated
Mon 05:54:00 AM -21.3031 -45.0488 211° Southwest  Level Estimated
Mon 05:55:00 AM -21.3551 -45.0830 211° Southwest  Level Estimated
Mon 05:56:00 AM -21.4072 -45.1171 211° Southwest  Level Estimated
Mon 05:57:00 AM -21.4592 -45.1513 211° Southwest  Level Estimated
Mon 05:58:00 AM -21.5113 -45.1855 211° Southwest  Level Estimated
Mon 05:59:00 AM -21.5633 -45.2197 211° Southwest  Level Estimated
Mon 06:00:00 AM -21.6153 -45.2540 211° Southwest  Level Estimated
Mon 06:01:00 AM -21.6673 -45.2883 211° Southwest  Level Estimated
Mon 06:02:00 AM -21.7193 -45.3226 211° Southwest  Level Estimated
Mon 06:03:00 AM -21.7713 -45.3569 212° Southwest  Level Estimated
Mon 06:04:00 AM -21.8233 -45.3913 212° Southwest  Level Estimated
Mon 06:05:00 AM -21.8753 -45.4257 212° Southwest  Level Estimated
Mon 06:06:00 AM -21.9273 -45.4601 212° Southwest  Level Estimated
Mon 06:07:00 AM -21.9793 -45.4945 212° Southwest  Level Estimated
Mon 06:08:00 AM -22.0312 -45.5289 212° Southwest  Level Estimated
Mon 06:09:00 AM -22.1056 -45.5783 212° Southwest  Level Estimated
Mon 06:10:00 AM -22.1800 -45.6277 212° Southwest  Level Estimated
Mon 06:11:00 AM -22.2543 -45.6772 212° Southwest  Level Estimated
Mon 06:12:00 AM -22.3286 -45.7267 212° Southwest  Level Estimated
Mon 06:13:00 AM -22.4029 -45.7763 212° Southwest  Level Estimated
Mon 06:14:00 AM -22.4772 -45.8259 212° Southwest  Level Estimated
Mon 06:15:00 AM -22.5515 -45.8756 212° Southwest  Level Estimated
Mon 06:16:00 AM -22.6257 -45.9253 212° Southwest  Level Estimated
Mon 06:17:00 AM -22.7000 -45.9751 212° Southwest  Level Estimated
Mon 06:18:00 AM -22.7742 -46.0250 212° Southwest  Level Estimated
Mon 06:19:00 AM -22.8484 -46.0749 212° Southwest  Level Estimated
Mon 06:20:00 AM -22.9226 -46.1248 212° Southwest  Level Estimated
Mon 06:21:00 AM -22.9968 -46.1748 212° Southwest  Level Estimated
Mon 06:22:00 AM -23.0710 -46.2249 212° Southwest  Level Estimated
Mon 06:23:00 AM -23.1452 -46.2750 212° Southwest  Level Estimated
Mon 06:24:00 AM -23.2193 -46.3251 212° Southwest  Level Estimated
Mon 06:25:00 AM -23.2934 -46.3754 212° Southwest  Level Estimated
Mon 06:26:00 AM -23.3675 -46.4257 212° Southwest  Level Estimated
Mon 06:27:00 AM -23.4321 -46.4695 212° Southwest  Level Estimated
Mon 06:28:00 AM -23.4321 -46.4695 350° North  Level Estimated
Mon 06:29:00 AM -23.4321 -46.4695 350° North  Level Estimated

Login

Don't have an account? Register now (free) for customized features, flight alerts, and more!